sensor_id;sensor_type;location;lat;lon;timestamp;temperature;humidity
25300;DHT22;13241;51.208;4.432;2023-09-08T00:01:01;22.20;99.90
25300;DHT22;13241;51.208;4.432;2023-09-08T00:03:28;22.10;99.90
25300;DHT22;13241;51.208;4.432;2023-09-08T00:05:55;22.10;99.90
25300;DHT22;13241;51.208;4.432;2023-09-08T00:08:22;22.10;99.90
25300;DHT22;13241;51.208;4.432;2023-09-08T00:10:50;22.00;99.90
25300;DHT22;13241;51.208;4.432;2023-09-08T00:13:17;22.00;99.90
25300;DHT22;13241;51.208;4.432;2023-09-08T00:15:44;22.00;99.90
25300;DHT22;13241;51.208;4.432;2023-09-08T00:18:12;22.00;99.90
25300;DHT22;13241;51.208;4.432;2023-09-08T00:20:38;21.90;99.90
25300;DHT22;13241;51.208;4.432;2023-09-08T00:23:06;21.90;99.90
25300;DHT22;13241;51.208;4.432;2023-09-08T00:25:32;21.90;99.90
25300;DHT22;13241;51.208;4.432;2023-09-08T00:28:01;21.80;99.90
25300;DHT22;13241;51.208;4.432;2023-09-08T00:30:28;21.80;99.90
25300;DHT22;13241;51.208;4.432;2023-09-08T00:32:55;21.80;99.90
25300;DHT22;13241;51.208;4.432;2023-09-08T00:35:22;21.80;99.90
25300;DHT22;13241;51.208;4.432;2023-09-08T00:37:49;21.80;99.90
25300;DHT22;13241;51.208;4.432;2023-09-08T00:40:16;21.80;99.90
25300;DHT22;13241;51.208;4.432;2023-09-08T00:42:43;21.80;99.90
25300;DHT22;13241;51.208;4.432;2023-09-08T00:45:10;21.70;99.90
25300;DHT22;13241;51.208;4.432;2023-09-08T00:47:37;21.70;99.90
25300;DHT22;13241;51.208;4.432;2023-09-08T00:50:05;21.70;99.90
25300;DHT22;13241;51.208;4.432;2023-09-08T00:52:32;21.70;99.90
25300;DHT22;13241;51.208;4.432;2023-09-08T00:55:00;21.60;99.90
25300;DHT22;13241;51.208;4.432;2023-09-08T00:57:27;21.60;99.90
25300;DHT22;13241;51.208;4.432;2023-09-08T00:59:54;21.60;99.90
25300;DHT22;13241;51.208;4.432;2023-09-08T01:02:22;21.60;99.90
25300;DHT22;13241;51.208;4.432;2023-09-08T01:04:49;21.60;99.90
25300;DHT22;13241;51.208;4.432;2023-09-08T01:07:17;21.60;99.90
25300;DHT22;13241;51.208;4.432;2023-09-08T01:09:46;21.50;99.90
25300;DHT22;13241;51.208;4.432;2023-09-08T01:12:15;21.50;99.90
25300;DHT22;13241;51.208;4.432;2023-09-08T01:14:42;21.50;99.90
25300;DHT22;13241;51.208;4.432;2023-09-08T01:17:09;21.50;99.90
25300;DHT22;13241;51.208;4.432;2023-09-08T01:19:37;21.50;99.90
25300;DHT22;13241;51.208;4.432;2023-09-08T01:27:37;21.60;99.90
25300;DHT22;13241;51.208;4.432;2023-09-08T01:30:05;21.60;99.90
25300;DHT22;13241;51.208;4.432;2023-09-08T01:32:34;21.50;99.90
25300;DHT22;13241;51.208;4.432;2023-09-08T01:35:01;21.50;99.90
25300;DHT22;13241;51.208;4.432;2023-09-08T01:37:29;21.50;99.90
25300;DHT22;13241;51.208;4.432;2023-09-08T01:39:56;21.40;99.90
25300;DHT22;13241;51.208;4.432;2023-09-08T01:42:22;21.40;99.90
25300;DHT22;13241;51.208;4.432;2023-09-08T01:44:49;21.40;99.90
25300;DHT22;13241;51.208;4.432;2023-09-08T01:47:16;21.40;99.90
25300;DHT22;13241;51.208;4.432;2023-09-08T01:49:43;21.40;99.90
25300;DHT22;13241;51.208;4.432;2023-09-08T01:52:10;21.30;99.90
25300;DHT22;13241;51.208;4.432;2023-09-08T01:54:37;21.40;99.90
25300;DHT22;13241;51.208;4.432;2023-09-08T01:57:04;21.40;99.90
25300;DHT22;13241;51.208;4.432;2023-09-08T01:59:31;21.40;99.90
25300;DHT22;13241;51.208;4.432;2023-09-08T02:01:59;21.30;99.90
25300;DHT22;13241;51.208;4.432;2023-09-08T02:04:26;21.30;99.90
25300;DHT22;13241;51.208;4.432;2023-09-08T02:06:53;21.20;99.90
25300;DHT22;13241;51.208;4.432;2023-09-08T02:09:20;21.20;99.90
25300;DHT22;13241;51.208;4.432;2023-09-08T02:11:47;21.30;99.90
25300;DHT22;13241;51.208;4.432;2023-09-08T02:14:14;21.20;99.90
25300;DHT22;13241;51.208;4.432;2023-09-08T02:16:41;21.20;99.90
25300;DHT22;13241;51.208;4.432;2023-09-08T02:19:08;21.10;99.90
25300;DHT22;13241;51.208;4.432;2023-09-08T02:21:35;21.10;99.90
25300;DHT22;13241;51.208;4.432;2023-09-08T02:24:03;21.10;99.90
25300;DHT22;13241;51.208;4.432;2023-09-08T02:26:30;21.10;99.90
25300;DHT22;13241;51.208;4.432;2023-09-08T02:29:00;21.10;99.90
25300;DHT22;13241;51.208;4.432;2023-09-08T02:31:29;21.00;99.90
25300;DHT22;13241;51.208;4.432;2023-09-08T02:33:56;21.00;99.90
25300;DHT22;13241;51.208;4.432;2023-09-08T02:36:24;21.00;99.90
25300;DHT22;13241;51.208;4.432;2023-09-08T02:38:56;20.90;99.90
25300;DHT22;13241;51.208;4.432;2023-09-08T02:41:24;20.90;99.90
25300;DHT22;13241;51.208;4.432;2023-09-08T02:43:51;20.90;99.90
25300;DHT22;13241;51.208;4.432;2023-09-08T02:46:18;20.80;99.90
25300;DHT22;13241;51.208;4.432;2023-09-08T02:48:46;20.90;99.90
25300;DHT22;13241;51.208;4.432;2023-09-08T02:51:13;20.90;99.90
25300;DHT22;13241;51.208;4.432;2023-09-08T02:53:40;20.80;99.90
25300;DHT22;13241;51.208;4.432;2023-09-08T02:56:07;20.70;99.90
25300;DHT22;13241;51.208;4.432;2023-09-08T02:58:36;20.70;99.90
25300;DHT22;13241;51.208;4.432;2023-09-08T03:01:16;20.70;99.90
25300;DHT22;13241;51.208;4.432;2023-09-08T03:03:47;20.70;99.90
25300;DHT22;13241;51.208;4.432;2023-09-08T03:06:19;20.60;99.90
25300;DHT22;13241;51.208;4.432;2023-09-08T03:08:48;20.60;99.90
25300;DHT22;13241;51.208;4.432;2023-09-08T03:11:15;20.70;99.90
25300;DHT22;13241;51.208;4.432;2023-09-08T03:13:41;20.70;99.90
25300;DHT22;13241;51.208;4.432;2023-09-08T03:16:09;20.60;99.90
25300;DHT22;13241;51.208;4.432;2023-09-08T03:18:38;20.60;99.90
25300;DHT22;13241;51.208;4.432;2023-09-08T03:21:05;20.50;99.90
25300;DHT22;13241;51.208;4.432;2023-09-08T03:23:42;20.50;99.90
25300;DHT22;13241;51.208;4.432;2023-09-08T03:26:10;20.50;99.90
25300;DHT22;13241;51.208;4.432;2023-09-08T03:28:37;20.40;99.90
25300;DHT22;13241;51.208;4.432;2023-09-08T03:31:06;20.40;99.90
25300;DHT22;13241;51.208;4.432;2023-09-08T03:33:34;20.40;99.90
25300;DHT22;13241;51.208;4.432;2023-09-08T03:36:03;20.40;99.90
25300;DHT22;13241;51.208;4.432;2023-09-08T03:38:31;20.40;99.90
25300;DHT22;13241;51.208;4.432;2023-09-08T03:40:58;20.30;99.90
25300;DHT22;13241;51.208;4.432;2023-09-08T03:43:26;20.30;99.90
25300;DHT22;13241;51.208;4.432;2023-09-08T03:45:53;20.30;99.90
25300;DHT22;13241;51.208;4.432;2023-09-08T03:48:21;20.30;99.90
25300;DHT22;13241;51.208;4.432;2023-09-08T03:50:48;20.30;99.90
25300;DHT22;13241;51.208;4.432;2023-09-08T03:53:16;20.30;99.90
25300;DHT22;13241;51.208;4.432;2023-09-08T03:55:43;20.30;99.90
25300;DHT22;13241;51.208;4.432;2023-09-08T03:58:09;20.20;99.90
25300;DHT22;13241;51.208;4.432;2023-09-08T04:00:36;20.20;99.90
25300;DHT22;13241;51.208;4.432;2023-09-08T04:03:04;20.20;99.90
25300;DHT22;13241;51.208;4.432;2023-09-08T04:05:32;20.20;99.90
25300;DHT22;13241;51.208;4.432;2023-09-08T04:07:59;20.20;99.90
25300;DHT22;13241;51.208;4.432;2023-09-08T04:10:27;20.10;99.90
25300;DHT22;13241;51.208;4.432;2023-09-08T04:12:54;20.10;99.90
25300;DHT22;13241;51.208;4.432;2023-09-08T04:15:20;20.00;99.90
25300;DHT22;13241;51.208;4.432;2023-09-08T04:17:50;20.10;99.90
25300;DHT22;13241;51.208;4.432;2023-09-08T04:20:17;20.10;99.90
25300;DHT22;13241;51.208;4.432;2023-09-08T04:22:44;20.10;99.90
25300;DHT22;13241;51.208;4.432;2023-09-08T04:25:12;20.10;99.90
25300;DHT22;13241;51.208;4.432;2023-09-08T04:27:39;20.10;99.90
25300;DHT22;13241;51.208;4.432;2023-09-08T04:30:07;20.10;99.90
25300;DHT22;13241;51.208;4.432;2023-09-08T04:32:34;20.00;99.90
25300;DHT22;13241;51.208;4.432;2023-09-08T04:35:02;20.00;99.90
25300;DHT22;13241;51.208;4.432;2023-09-08T04:37:29;20.00;99.90
25300;DHT22;13241;51.208;4.432;2023-09-08T04:39:57;20.00;99.90
25300;DHT22;13241;51.208;4.432;2023-09-08T04:42:24;20.00;99.90
25300;DHT22;13241;51.208;4.432;2023-09-08T04:44:52;20.00;99.90
25300;DHT22;13241;51.208;4.432;2023-09-08T04:47:20;19.90;99.90
25300;DHT22;13241;51.208;4.432;2023-09-08T04:49:48;19.90;99.90
25300;DHT22;13241;51.208;4.432;2023-09-08T04:52:15;19.90;99.90
25300;DHT22;13241;51.208;4.432;2023-09-08T04:54:43;19.90;99.90
25300;DHT22;13241;51.208;4.432;2023-09-08T04:57:10;19.90;99.90
25300;DHT22;13241;51.208;4.432;2023-09-08T04:59:50;19.90;99.90
25300;DHT22;13241;51.208;4.432;2023-09-08T05:02:18;19.90;99.90
25300;DHT22;13241;51.208;4.432;2023-09-08T05:04:46;19.80;99.90
25300;DHT22;13241;51.208;4.432;2023-09-08T05:07:13;19.80;99.90
25300;DHT22;13241;51.208;4.432;2023-09-08T05:09:41;19.80;99.90
25300;DHT22;13241;51.208;4.432;2023-09-08T05:12:08;19.80;99.90
25300;DHT22;13241;51.208;4.432;2023-09-08T05:14:36;19.80;99.90
25300;DHT22;13241;51.208;4.432;2023-09-08T05:17:03;19.90;99.90
25300;DHT22;13241;51.208;4.432;2023-09-08T05:19:31;19.90;99.90
25300;DHT22;13241;51.208;4.432;2023-09-08T05:21:59;19.90;99.90
25300;DHT22;13241;51.208;4.432;2023-09-08T05:24:26;19.90;99.90
25300;DHT22;13241;51.208;4.432;2023-09-08T05:26:54;19.90;99.90
25300;DHT22;13241;51.208;4.432;2023-09-08T05:29:21;20.00;99.90
25300;DHT22;13241;51.208;4.432;2023-09-08T05:31:49;20.10;99.90
25300;DHT22;13241;51.208;4.432;2023-09-08T05:34:17;20.20;99.90
25300;DHT22;13241;51.208;4.432;2023-09-08T05:36:44;20.20;99.90
25300;DHT22;13241;51.208;4.432;2023-09-08T05:39:16;20.20;99.90
25300;DHT22;13241;51.208;4.432;2023-09-08T05:41:46;20.30;99.90
25300;DHT22;13241;51.208;4.432;2023-09-08T05:44:13;20.30;99.90
25300;DHT22;13241;51.208;4.432;2023-09-08T05:46:40;20.30;99.90
25300;DHT22;13241;51.208;4.432;2023-09-08T05:49:08;20.30;99.90
25300;DHT22;13241;51.208;4.432;2023-09-08T05:51:36;20.40;99.90
25300;DHT22;13241;51.208;4.432;2023-09-08T05:54:04;20.40;99.90
25300;DHT22;13241;51.208;4.432;2023-09-08T05:56:33;20.40;99.90
25300;DHT22;13241;51.208;4.432;2023-09-08T05:59:01;20.40;99.90
25300;DHT22;13241;51.208;4.432;2023-09-08T06:01:30;20.40;99.90
25300;DHT22;13241;51.208;4.432;2023-09-08T06:03:59;20.50;99.90
25300;DHT22;13241;51.208;4.432;2023-09-08T06:06:29;20.50;99.90
25300;DHT22;13241;51.208;4.432;2023-09-08T06:08:57;20.50;99.90
25300;DHT22;13241;51.208;4.432;2023-09-08T06:11:26;20.50;99.90
25300;DHT22;13241;51.208;4.432;2023-09-08T06:13:53;20.60;99.90
25300;DHT22;13241;51.208;4.432;2023-09-08T06:16:27;20.60;99.90
25300;DHT22;13241;51.208;4.432;2023-09-08T06:18:54;20.60;99.90
25300;DHT22;13241;51.208;4.432;2023-09-08T06:21:22;20.70;99.90
25300;DHT22;13241;51.208;4.432;2023-09-08T06:23:49;20.80;99.90
25300;DHT22;13241;51.208;4.432;2023-09-08T06:26:17;20.90;99.90
25300;DHT22;13241;51.208;4.432;2023-09-08T06:28:46;20.90;99.90
25300;DHT22;13241;51.208;4.432;2023-09-08T06:31:13;21.00;99.90
25300;DHT22;13241;51.208;4.432;2023-09-08T06:33:42;21.10;99.90
25300;DHT22;13241;51.208;4.432;2023-09-08T06:36:09;21.20;99.90
25300;DHT22;13241;51.208;4.432;2023-09-08T06:38:40;21.30;99.90
25300;DHT22;13241;51.208;4.432;2023-09-08T06:41:13;21.40;99.90
25300;DHT22;13241;51.208;4.432;2023-09-08T06:43:42;21.50;99.90
25300;DHT22;13241;51.208;4.432;2023-09-08T06:46:16;21.70;99.90
25300;DHT22;13241;51.208;4.432;2023-09-08T06:48:44;21.70;99.90
25300;DHT22;13241;51.208;4.432;2023-09-08T06:51:11;21.90;99.90
25300;DHT22;13241;51.208;4.432;2023-09-08T06:53:39;22.00;99.90
25300;DHT22;13241;51.208;4.432;2023-09-08T06:56:06;22.10;99.90
25300;DHT22;13241;51.208;4.432;2023-09-08T06:58:33;22.30;99.90
25300;DHT22;13241;51.208;4.432;2023-09-08T07:01:02;22.40;99.90
25300;DHT22;13241;51.208;4.432;2023-09-08T07:03:29;22.50;99.90
25300;DHT22;13241;51.208;4.432;2023-09-08T07:06:06;22.60;99.90
25300;DHT22;13241;51.208;4.432;2023-09-08T07:08:33;22.70;99.90
25300;DHT22;13241;51.208;4.432;2023-09-08T07:11:00;22.80;99.90
25300;DHT22;13241;51.208;4.432;2023-09-08T07:13:27;22.90;99.90
25300;DHT22;13241;51.208;4.432;2023-09-08T07:15:56;23.00;99.90
25300;DHT22;13241;51.208;4.432;2023-09-08T07:18:23;23.20;99.90
25300;DHT22;13241;51.208;4.432;2023-09-08T07:20:51;23.30;99.90
25300;DHT22;13241;51.208;4.432;2023-09-08T07:23:19;23.40;99.90
25300;DHT22;13241;51.208;4.432;2023-09-08T07:25:47;23.50;99.90
25300;DHT22;13241;51.208;4.432;2023-09-08T07:28:16;23.60;99.90
25300;DHT22;13241;51.208;4.432;2023-09-08T07:30:44;23.70;99.90
25300;DHT22;13241;51.208;4.432;2023-09-08T07:33:12;23.80;99.90
25300;DHT22;13241;51.208;4.432;2023-09-08T07:35:41;23.90;99.90
25300;DHT22;13241;51.208;4.432;2023-09-08T07:38:08;24.00;99.90
25300;DHT22;13241;51.208;4.432;2023-09-08T07:40:35;24.20;99.90
25300;DHT22;13241;51.208;4.432;2023-09-08T07:43:02;24.40;99.90
25300;DHT22;13241;51.208;4.432;2023-09-08T07:45:29;24.50;99.90
25300;DHT22;13241;51.208;4.432;2023-09-08T07:47:56;24.70;99.90
25300;DHT22;13241;51.208;4.432;2023-09-08T07:50:28;24.80;99.90
25300;DHT22;13241;51.208;4.432;2023-09-08T07:52:56;25.00;99.90
25300;DHT22;13241;51.208;4.432;2023-09-08T07:55:23;25.20;99.90
25300;DHT22;13241;51.208;4.432;2023-09-08T07:57:53;25.30;99.90
25300;DHT22;13241;51.208;4.432;2023-09-08T08:00:21;25.50;99.90
25300;DHT22;13241;51.208;4.432;2023-09-08T08:02:50;25.50;99.90
25300;DHT22;13241;51.208;4.432;2023-09-08T08:05:17;25.60;99.90
25300;DHT22;13241;51.208;4.432;2023-09-08T08:07:44;25.70;99.90
25300;DHT22;13241;51.208;4.432;2023-09-08T08:10:12;25.80;99.90
25300;DHT22;13241;51.208;4.432;2023-09-08T08:12:40;26.00;99.90
25300;DHT22;13241;51.208;4.432;2023-09-08T08:15:09;26.10;99.90
25300;DHT22;13241;51.208;4.432;2023-09-08T08:17:39;26.20;99.90
25300;DHT22;13241;51.208;4.432;2023-09-08T08:20:09;26.30;99.90
25300;DHT22;13241;51.208;4.432;2023-09-08T08:22:37;26.50;99.90
25300;DHT22;13241;51.208;4.432;2023-09-08T08:25:05;26.70;99.90
25300;DHT22;13241;51.208;4.432;2023-09-08T08:27:32;26.80;99.90
25300;DHT22;13241;51.208;4.432;2023-09-08T08:30:00;27.00;99.90
25300;DHT22;13241;51.208;4.432;2023-09-08T08:32:37;27.20;99.90
25300;DHT22;13241;51.208;4.432;2023-09-08T08:35:04;27.40;99.90
25300;DHT22;13241;51.208;4.432;2023-09-08T08:37:31;27.50;99.90
25300;DHT22;13241;51.208;4.432;2023-09-08T08:39:58;27.50;99.90
25300;DHT22;13241;51.208;4.432;2023-09-08T08:42:31;27.60;99.90
25300;DHT22;13241;51.208;4.432;2023-09-08T08:45:00;27.70;99.90
25300;DHT22;13241;51.208;4.432;2023-09-08T08:47:27;27.90;99.90
25300;DHT22;13241;51.208;4.432;2023-09-08T08:50:00;28.10;99.90
25300;DHT22;13241;51.208;4.432;2023-09-08T08:52:29;28.30;99.90
25300;DHT22;13241;51.208;4.432;2023-09-08T08:54:56;28.40;99.90
25300;DHT22;13241;51.208;4.432;2023-09-08T08:57:24;28.60;99.90
25300;DHT22;13241;51.208;4.432;2023-09-08T08:59:54;28.80;99.90
25300;DHT22;13241;51.208;4.432;2023-09-08T09:02:22;28.90;99.90
25300;DHT22;13241;51.208;4.432;2023-09-08T09:04:52;29.10;99.90
25300;DHT22;13241;51.208;4.432;2023-09-08T09:07:20;29.20;99.90
25300;DHT22;13241;51.208;4.432;2023-09-08T09:09:47;29.30;99.90
25300;DHT22;13241;51.208;4.432;2023-09-08T09:12:14;29.50;99.90
25300;DHT22;13241;51.208;4.432;2023-09-08T09:14:47;29.50;99.90
25300;DHT22;13241;51.208;4.432;2023-09-08T09:17:15;29.50;99.90
25300;DHT22;13241;51.208;4.432;2023-09-08T09:19:42;29.60;99.90
25300;DHT22;13241;51.208;4.432;2023-09-08T09:22:09;29.70;99.90
25300;DHT22;13241;51.208;4.432;2023-09-08T09:24:38;29.60;99.90
25300;DHT22;13241;51.208;4.432;2023-09-08T09:27:11;29.70;99.90
25300;DHT22;13241;51.208;4.432;2023-09-08T09:29:58;29.80;99.90
25300;DHT22;13241;51.208;4.432;2023-09-08T09:32:25;30.00;99.90
25300;DHT22;13241;51.208;4.432;2023-09-08T09:34:53;30.10;99.90
25300;DHT22;13241;51.208;4.432;2023-09-08T09:37:22;30.20;99.90
25300;DHT22;13241;51.208;4.432;2023-09-08T09:39:53;30.00;99.90
25300;DHT22;13241;51.208;4.432;2023-09-08T09:42:21;30.00;99.90
25300;DHT22;13241;51.208;4.432;2023-09-08T09:44:49;30.10;99.90
25300;DHT22;13241;51.208;4.432;2023-09-08T09:47:16;30.20;99.90
25300;DHT22;13241;51.208;4.432;2023-09-08T09:49:45;30.30;99.90
25300;DHT22;13241;51.208;4.432;2023-09-08T09:52:13;30.40;99.90
25300;DHT22;13241;51.208;4.432;2023-09-08T09:54:43;30.50;99.90
25300;DHT22;13241;51.208;4.432;2023-09-08T09:57:13;30.60;99.90
25300;DHT22;13241;51.208;4.432;2023-09-08T09:59:41;30.70;99.90
25300;DHT22;13241;51.208;4.432;2023-09-08T10:02:14;30.90;99.90
25300;DHT22;13241;51.208;4.432;2023-09-08T10:04:42;31.00;99.90
25300;DHT22;13241;51.208;4.432;2023-09-08T10:07:10;31.10;99.90
25300;DHT22;13241;51.208;4.432;2023-09-08T10:09:37;31.10;99.90
25300;DHT22;13241;51.208;4.432;2023-09-08T10:12:05;31.10;99.90
25300;DHT22;13241;51.208;4.432;2023-09-08T10:14:36;31.20;99.90
25300;DHT22;13241;51.208;4.432;2023-09-08T10:17:05;31.30;99.90
25300;DHT22;13241;51.208;4.432;2023-09-08T10:19:36;31.40;99.90
25300;DHT22;13241;51.208;4.432;2023-09-08T10:22:12;31.40;99.90
25300;DHT22;13241;51.208;4.432;2023-09-08T10:24:40;31.40;99.90
25300;DHT22;13241;51.208;4.432;2023-09-08T10:27:11;31.40;99.90
25300;DHT22;13241;51.208;4.432;2023-09-08T10:29:39;31.40;99.90
25300;DHT22;13241;51.208;4.432;2023-09-08T10:32:08;31.30;99.90
25300;DHT22;13241;51.208;4.432;2023-09-08T10:34:37;31.10;99.90
25300;DHT22;13241;51.208;4.432;2023-09-08T10:39:47;31.30;99.90
25300;DHT22;13241;51.208;4.432;2023-09-08T10:42:23;31.30;99.90
25300;DHT22;13241;51.208;4.432;2023-09-08T10:45:00;31.40;99.90
25300;DHT22;13241;51.208;4.432;2023-09-08T10:47:33;31.50;99.90
25300;DHT22;13241;51.208;4.432;2023-09-08T10:50:04;31.50;99.90
25300;DHT22;13241;51.208;4.432;2023-09-08T10:52:35;31.30;99.90
25300;DHT22;13241;51.208;4.432;2023-09-08T10:55:03;31.30;99.90
25300;DHT22;13241;51.208;4.432;2023-09-08T10:57:33;31.30;99.90
25300;DHT22;13241;51.208;4.432;2023-09-08T11:00:03;31.30;99.90
25300;DHT22;13241;51.208;4.432;2023-09-08T11:02:41;31.40;99.90
25300;DHT22;13241;51.208;4.432;2023-09-08T11:05:10;31.40;99.90
25300;DHT22;13241;51.208;4.432;2023-09-08T11:07:38;31.50;99.90
25300;DHT22;13241;51.208;4.432;2023-09-08T11:10:06;31.60;99.90
25300;DHT22;13241;51.208;4.432;2023-09-08T11:12:34;31.50;99.90
25300;DHT22;13241;51.208;4.432;2023-09-08T11:15:03;31.60;99.90
25300;DHT22;13241;51.208;4.432;2023-09-08T11:17:36;31.70;99.90
25300;DHT22;13241;51.208;4.432;2023-09-08T11:20:06;31.60;99.90
25300;DHT22;13241;51.208;4.432;2023-09-08T11:22:41;31.60;99.90
25300;DHT22;13241;51.208;4.432;2023-09-08T11:25:12;31.50;99.90
25300;DHT22;13241;51.208;4.432;2023-09-08T11:27:39;31.60;99.90
25300;DHT22;13241;51.208;4.432;2023-09-08T11:30:08;31.50;99.90
25300;DHT22;13241;51.208;4.432;2023-09-08T11:32:36;31.50;99.90
25300;DHT22;13241;51.208;4.432;2023-09-08T11:35:08;31.50;99.90
25300;DHT22;13241;51.208;4.432;2023-09-08T11:37:42;31.50;99.90
25300;DHT22;13241;51.208;4.432;2023-09-08T11:40:10;31.60;99.90
25300;DHT22;13241;51.208;4.432;2023-09-08T11:42:40;31.50;99.90
25300;DHT22;13241;51.208;4.432;2023-09-08T11:45:16;31.60;99.90
25300;DHT22;13241;51.208;4.432;2023-09-08T11:47:50;31.70;99.90
25300;DHT22;13241;51.208;4.432;2023-09-08T11:50:20;31.80;99.90
25300;DHT22;13241;51.208;4.432;2023-09-08T11:52:48;31.70;99.90
25300;DHT22;13241;51.208;4.432;2023-09-08T11:55:21;31.60;99.90
25300;DHT22;13241;51.208;4.432;2023-09-08T11:57:55;31.80;99.90
25300;DHT22;13241;51.208;4.432;2023-09-08T12:00:27;31.90;99.90
25300;DHT22;13241;51.208;4.432;2023-09-08T12:02:55;31.90;99.90
25300;DHT22;13241;51.208;4.432;2023-09-08T12:05:35;31.90;99.90
25300;DHT22;13241;51.208;4.432;2023-09-08T12:08:04;31.90;99.90
25300;DHT22;13241;51.208;4.432;2023-09-08T12:10:41;32.00;99.90
25300;DHT22;13241;51.208;4.432;2023-09-08T12:13:09;31.90;99.90
25300;DHT22;13241;51.208;4.432;2023-09-08T12:15:41;31.90;99.90
25300;DHT22;13241;51.208;4.432;2023-09-08T12:18:10;31.80;99.90
25300;DHT22;13241;51.208;4.432;2023-09-08T12:20:38;31.70;99.90
25300;DHT22;13241;51.208;4.432;2023-09-08T12:23:17;31.70;99.90
25300;DHT22;13241;51.208;4.432;2023-09-08T12:25:45;31.70;99.90
25300;DHT22;13241;51.208;4.432;2023-09-08T12:28:13;31.70;99.90
25300;DHT22;13241;51.208;4.432;2023-09-08T12:30:41;31.70;99.90
25300;DHT22;13241;51.208;4.432;2023-09-08T12:33:10;31.80;99.90
25300;DHT22;13241;51.208;4.432;2023-09-08T12:35:37;31.70;99.90
25300;DHT22;13241;51.208;4.432;2023-09-08T12:38:05;31.80;99.90
25300;DHT22;13241;51.208;4.432;2023-09-08T12:40:37;31.80;99.90
25300;DHT22;13241;51.208;4.432;2023-09-08T12:43:05;31.90;99.90
25300;DHT22;13241;51.208;4.432;2023-09-08T12:45:52;31.90;99.90
25300;DHT22;13241;51.208;4.432;2023-09-08T12:48:19;31.90;99.90
25300;DHT22;13241;51.208;4.432;2023-09-08T12:50:46;31.90;99.90
25300;DHT22;13241;51.208;4.432;2023-09-08T12:53:15;31.80;99.90
25300;DHT22;13241;51.208;4.432;2023-09-08T12:55:43;31.90;99.90
25300;DHT22;13241;51.208;4.432;2023-09-08T12:58:10;31.80;99.90
25300;DHT22;13241;51.208;4.432;2023-09-08T13:00:37;31.90;99.90
25300;DHT22;13241;51.208;4.432;2023-09-08T13:03:04;32.00;99.90
25300;DHT22;13241;51.208;4.432;2023-09-08T13:05:31;31.80;99.90
25300;DHT22;13241;51.208;4.432;2023-09-08T13:08:00;32.00;99.90
25300;DHT22;13241;51.208;4.432;2023-09-08T13:10:27;32.10;99.90
25300;DHT22;13241;51.208;4.432;2023-09-08T13:12:54;32.10;99.90
25300;DHT22;13241;51.208;4.432;2023-09-08T13:15:23;32.10;99.90
25300;DHT22;13241;51.208;4.432;2023-09-08T13:17:50;32.10;99.90
25300;DHT22;13241;51.208;4.432;2023-09-08T13:20:18;32.00;99.90
25300;DHT22;13241;51.208;4.432;2023-09-08T13:22:45;32.00;99.90
25300;DHT22;13241;51.208;4.432;2023-09-08T13:25:12;32.10;99.90
25300;DHT22;13241;51.208;4.432;2023-09-08T13:27:42;32.20;99.90
25300;DHT22;13241;51.208;4.432;2023-09-08T13:30:11;32.30;99.90
25300;DHT22;13241;51.208;4.432;2023-09-08T13:32:39;32.40;99.90
25300;DHT22;13241;51.208;4.432;2023-09-08T13:35:06;32.30;99.90
25300;DHT22;13241;51.208;4.432;2023-09-08T13:37:36;32.30;99.90
25300;DHT22;13241;51.208;4.432;2023-09-08T13:40:05;33.00;99.90
25300;DHT22;13241;51.208;4.432;2023-09-08T13:42:33;34.00;99.90
25300;DHT22;13241;51.208;4.432;2023-09-08T13:45:01;34.90;99.90
25300;DHT22;13241;51.208;4.432;2023-09-08T13:47:28;35.50;99.90
25300;DHT22;13241;51.208;4.432;2023-09-08T13:49:55;36.10;99.90
25300;DHT22;13241;51.208;4.432;2023-09-08T13:52:25;36.50;99.90
25300;DHT22;13241;51.208;4.432;2023-09-08T13:54:57;37.00;99.90
25300;DHT22;13241;51.208;4.432;2023-09-08T13:57:27;37.20;99.90
25300;DHT22;13241;51.208;4.432;2023-09-08T13:59:54;37.40;99.90
25300;DHT22;13241;51.208;4.432;2023-09-08T14:02:24;37.20;99.90
25300;DHT22;13241;51.208;4.432;2023-09-08T14:04:54;37.30;99.90
25300;DHT22;13241;51.208;4.432;2023-09-08T14:07:28;37.30;99.90
25300;DHT22;13241;51.208;4.432;2023-09-08T14:10:03;37.40;99.90
25300;DHT22;13241;51.208;4.432;2023-09-08T14:12:36;37.60;99.90
25300;DHT22;13241;51.208;4.432;2023-09-08T14:15:07;37.60;99.00
25300;DHT22;13241;51.208;4.432;2023-09-08T14:17:35;37.90;98.30
25300;DHT22;13241;51.208;4.432;2023-09-08T14:20:02;38.30;97.70
25300;DHT22;13241;51.208;4.432;2023-09-08T14:22:30;38.50;96.80
25300;DHT22;13241;51.208;4.432;2023-09-08T14:24:57;38.70;96.80
25300;DHT22;13241;51.208;4.432;2023-09-08T14:27:24;38.90;96.10
25300;DHT22;13241;51.208;4.432;2023-09-08T14:29:51;39.10;95.40
25300;DHT22;13241;51.208;4.432;2023-09-08T14:32:21;39.30;95.60
25300;DHT22;13241;51.208;4.432;2023-09-08T14:34:48;39.50;95.70
25300;DHT22;13241;51.208;4.432;2023-09-08T14:37:15;39.70;94.70
25300;DHT22;13241;51.208;4.432;2023-09-08T14:39:42;39.80;94.50
25300;DHT22;13241;51.208;4.432;2023-09-08T14:42:09;39.80;93.80
25300;DHT22;13241;51.208;4.432;2023-09-08T14:44:36;39.90;93.70
25300;DHT22;13241;51.208;4.432;2023-09-08T14:47:03;39.70;93.20
25300;DHT22;13241;51.208;4.432;2023-09-08T14:49:30;39.50;93.30
25300;DHT22;13241;51.208;4.432;2023-09-08T14:51:57;39.40;93.20
25300;DHT22;13241;51.208;4.432;2023-09-08T14:54:25;39.30;93.10
25300;DHT22;13241;51.208;4.432;2023-09-08T14:56:52;39.50;94.10
25300;DHT22;13241;51.208;4.432;2023-09-08T14:59:20;39.80;93.00
25300;DHT22;13241;51.208;4.432;2023-09-08T15:01:47;39.90;93.70
25300;DHT22;13241;51.208;4.432;2023-09-08T15:04:17;39.80;93.20
25300;DHT22;13241;51.208;4.432;2023-09-08T15:06:45;39.60;93.10
25300;DHT22;13241;51.208;4.432;2023-09-08T15:09:12;39.30;93.20
25300;DHT22;13241;51.208;4.432;2023-09-08T15:11:39;39.40;93.50
25300;DHT22;13241;51.208;4.432;2023-09-08T15:14:06;39.70;93.30
25300;DHT22;13241;51.208;4.432;2023-09-08T15:16:36;40.00;92.70
25300;DHT22;13241;51.208;4.432;2023-09-08T15:19:03;40.50;92.30
25300;DHT22;13241;51.208;4.432;2023-09-08T15:21:30;40.80;91.80
25300;DHT22;13241;51.208;4.432;2023-09-08T15:23:59;40.80;91.60
25300;DHT22;13241;51.208;4.432;2023-09-08T15:26:26;40.70;91.30
25300;DHT22;13241;51.208;4.432;2023-09-08T15:28:56;40.60;91.20
25300;DHT22;13241;51.208;4.432;2023-09-08T15:31:24;40.40;91.00
25300;DHT22;13241;51.208;4.432;2023-09-08T15:33:51;40.20;90.90
25300;DHT22;13241;51.208;4.432;2023-09-08T15:36:18;40.10;91.50
25300;DHT22;13241;51.208;4.432;2023-09-08T15:38:45;39.90;91.00
25300;DHT22;13241;51.208;4.432;2023-09-08T15:41:14;39.00;91.70
25300;DHT22;13241;51.208;4.432;2023-09-08T15:43:50;37.80;92.40
25300;DHT22;13241;51.208;4.432;2023-09-08T15:46:22;36.70;94.00